Time;durP1;ratioP1;P1;durP2;ratioP2;P2;SDS_P1;SDS_P2;PMS_P1;PMS_P2;Temp;Humidity;BMP_temperature;BMP_pressure;BME280_temperature;BME280_humidity;BME280_pressure;Samples;Min_cycle;Max_cycle;Signal;HPM_P1;HPM_P2
2021/09/13 00:01:22;;;;;;;20.53;13.37;;;16.40;66.70;;;;;;5014769;28;20389;-75
2021/09/13 00:03:48;;;;;;;22.38;13.65;;;16.30;67.20;;;;;;5014184;28;20400;-76
2021/09/13 00:06:13;;;;;;;21.80;14.02;;;16.30;67.00;;;;;;5013700;28;20393;-75
2021/09/13 00:08:39;;;;;;;20.30;14.10;;;16.30;67.70;;;;;;5012748;28;20914;-76
2021/09/13 00:11:05;;;;;;;27.00;14.70;;;16.30;67.80;;;;;;5012523;28;20870;-77
2021/09/13 00:13:30;;;;;;;19.07;14.50;;;16.30;67.50;;;;;;5012146;28;20385;-77
2021/09/13 00:15:56;;;;;;;22.73;15.65;;;16.20;68.30;;;;;;5012262;28;20762;-76
2021/09/13 00:18:21;;;;;;;21.73;14.32;;;16.30;67.70;;;;;;5012246;28;20413;-77
2021/09/13 00:20:47;;;;;;;21.80;14.73;;;16.20;67.80;;;;;;4999464;28;20891;-76
2021/09/13 00:23:12;;;;;;;24.90;15.63;;;16.20;68.60;;;;;;4993596;28;20394;-77
2021/09/13 00:25:38;;;;;;;18.70;14.90;;;16.10;69.60;;;;;;4993466;28;20390;-77
2021/09/13 00:28:04;;;;;;;23.30;14.67;;;16.10;70.60;;;;;;4993592;28;20989;-75
2021/09/13 00:30:29;;;;;;;24.73;15.75;;;16.00;71.20;;;;;;4994449;28;20411;-76
2021/09/13 00:32:55;;;;;;;30.30;15.70;;;16.00;72.10;;;;;;4994103;28;20466;-74
2021/09/13 00:35:20;;;;;;;19.98;15.25;;;16.00;72.20;;;;;;4994389;28;20486;-75
2021/09/13 00:37:46;;;;;;;22.63;15.00;;;16.00;72.60;;;;;;4993479;28;20436;-75
2021/09/13 00:40:12;;;;;;;25.70;15.85;;;15.90;73.60;;;;;;4993170;28;20448;-75
2021/09/13 00:42:38;;;;;;;22.85;16.48;;;15.80;75.00;;;;;;4996933;28;20435;-77
2021/09/13 00:45:04;;;;;;;25.40;15.73;;;15.70;77.60;;;;;;5012101;28;20497;-77
2021/09/13 00:47:30;;;;;;;25.20;16.88;;;15.50;79.00;;;;;;5011549;28;20874;-76
2021/09/13 00:49:55;;;;;;;24.67;16.93;;;15.20;83.50;;;;;;5011146;28;20474;-77
2021/09/13 00:52:22;;;;;;;23.07;17.13;;;15.30;87.70;;;;;;5011454;28;20392;-75
2021/09/13 00:54:47;;;;;;;23.95;17.08;;;15.40;84.40;;;;;;5011289;28;20385;-74
2021/09/13 00:57:14;;;;;;;24.95;17.65;;;15.50;82.50;;;;;;5011665;28;20747;-75
2021/09/13 00:59:40;;;;;;;24.77;18.00;;;15.40;82.60;;;;;;5009928;28;20439;-75
2021/09/13 01:02:05;;;;;;;28.05;18.50;;;15.30;83.20;;;;;;5011308;28;20428;-75
2021/09/13 01:04:31;;;;;;;26.67;17.70;;;15.10;89.30;;;;;;5011645;28;20399;-74
2021/09/13 01:06:57;;;;;;;24.13;17.27;;;15.10;91.20;;;;;;5011472;28;20473;-73
2021/09/13 01:09:23;;;;;;;26.50;17.08;;;15.30;87.50;;;;;;5013684;28;20456;-75
2021/09/13 01:11:49;;;;;;;20.02;15.88;;;15.20;86.00;;;;;;5011976;28;20388;-76
2021/09/13 01:14:16;;;;;;;27.50;15.07;;;15.20;86.30;;;;;;5011630;28;20400;-76
2021/09/13 01:16:42;;;;;;;19.90;14.05;;;15.10;87.10;;;;;;5011862;28;20751;-76
2021/09/13 01:19:07;;;;;;;21.58;14.70;;;15.20;85.60;;;;;;5011454;28;20419;-75
2021/09/13 01:21:36;;;;;;;20.30;14.25;;;15.00;85.30;;;;;;4992902;28;20875;-76
2021/09/13 01:24:01;;;;;;;23.48;14.73;;;15.00;87.70;;;;;;4992122;28;20886;-75
2021/09/13 01:26:27;;;;;;;20.77;15.00;;;14.90;87.80;;;;;;4992460;28;20394;-74
2021/09/13 01:28:52;;;;;;;23.15;16.90;;;14.80;91.30;;;;;;4989973;28;20468;-75
2021/09/13 01:31:18;;;;;;;30.20;17.50;;;14.60;94.20;;;;;;4991674;28;20384;-74
2021/09/13 01:33:44;;;;;;;30.25;16.90;;;14.50;96.40;;;;;;4991840;28;20842;-75
2021/09/13 01:36:09;;;;;;;22.90;15.70;;;14.40;98.20;;;;;;4991648;28;20396;-74
2021/09/13 01:38:35;;;;;;;26.17;17.30;;;14.30;99.90;;;;;;4989929;28;20469;-76
2021/09/13 01:41:00;;;;;;;23.73;16.70;;;14.20;99.90;;;;;;4991422;28;20398;-75
2021/09/13 01:43:26;;;;;;;24.20;17.20;;;14.10;99.90;;;;;;5002568;28;20468;-75
2021/09/13 01:45:52;;;;;;;29.63;19.83;;;14.10;99.90;;;;;;5009704;28;20507;-76
2021/09/13 01:48:17;;;;;;;28.33;19.35;;;14.00;99.90;;;;;;5011036;28;20400;-76
2021/09/13 01:50:43;;;;;;;29.92;19.25;;;14.00;99.90;;;;;;5011462;28;20794;-75
2021/09/13 01:53:08;;;;;;;28.40;20.27;;;14.00;99.90;;;;;;5011709;28;20395;-76
2021/09/13 01:55:34;;;;;;;32.22;19.92;;;14.10;99.90;;;;;;5019218;28;21091;-76
2021/09/13 01:58:00;;;;;;;29.75;19.65;;;14.00;99.90;;;;;;5018817;28;20420;-76
2021/09/13 02:00:26;;;;;;;31.95;20.42;;;14.00;99.90;;;;;;5016172;28;20404;-75
2021/09/13 02:02:51;;;;;;;32.25;20.48;;;14.10;99.90;;;;;;5022969;28;20393;-74
2021/09/13 02:05:17;;;;;;;27.50;19.70;;;14.10;99.90;;;;;;5021571;28;20439;-74
2021/09/13 02:07:42;;;;;;;24.10;18.50;;;14.00;99.90;;;;;;5020436;28;20451;-75
2021/09/13 02:10:08;;;;;;;27.63;19.27;;;14.00;99.90;;;;;;5021161;28;20408;-75
2021/09/13 02:12:34;;;;;;;27.40;19.13;;;14.00;99.90;;;;;;5018217;28;20427;-76
2021/09/13 02:15:00;;;;;;;29.80;19.33;;;14.10;99.90;;;;;;5016353;28;20400;-76
2021/09/13 02:17:25;;;;;;;24.97;18.07;;;14.10;99.90;;;;;;5015045;28;20866;-77
2021/09/13 02:19:51;;;;;;;29.73;18.00;;;14.30;99.90;;;;;;5013759;28;20400;-76
2021/09/13 02:22:17;;;;;;;27.15;17.25;;;14.50;99.50;;;;;;5014960;28;20424;-77
2021/09/13 02:24:42;;;;;;;27.70;17.92;;;14.60;94.30;;;;;;5014637;28;20411;-75
2021/09/13 02:27:08;;;;;;;24.02;16.95;;;14.60;91.20;;;;;;5015681;28;20464;-75
2021/09/13 02:29:34;;;;;;;30.40;17.67;;;14.50;92.20;;;;;;5009122;28;20410;-75
2021/09/13 02:32:00;;;;;;;24.67;17.70;;;14.30;94.70;;;;;;5003891;28;20401;-75
2021/09/13 02:34:26;;;;;;;30.75;18.20;;;14.20;96.80;;;;;;5004613;28;20418;-76
2021/09/13 02:36:52;;;;;;;28.23;18.30;;;14.20;99.60;;;;;;5004640;28;20394;-76
2021/09/13 02:39:17;;;;;;;26.52;17.77;;;14.00;99.70;;;;;;5004883;28;20391;-76
2021/09/13 02:41:44;;;;;;;28.05;17.95;;;13.90;99.90;;;;;;5004879;28;20402;-76
2021/09/13 02:44:09;;;;;;;28.60;20.20;;;13.80;99.90;;;;;;5021672;28;20396;-76
2021/09/13 02:46:35;;;;;;;32.53;20.00;;;13.80;99.90;;;;;;5024579;28;20389;-76
2021/09/13 02:49:00;;;;;;;29.80;19.57;;;13.90;99.90;;;;;;5024626;28;20420;-76
2021/09/13 02:51:26;;;;;;;29.03;19.73;;;13.90;99.90;;;;;;5028175;28;20468;-77
2021/09/13 02:53:52;;;;;;;29.63;19.88;;;13.90;99.90;;;;;;5028726;28;20476;-77
2021/09/13 02:56:17;;;;;;;26.70;19.25;;;14.00;99.90;;;;;;5028420;28;20381;-77
2021/09/13 02:58:43;;;;;;;28.35;20.05;;;13.90;99.90;;;;;;5027903;28;20399;-77
2021/09/13 03:01:09;;;;;;;31.07;21.07;;;13.80;99.90;;;;;;5028568;28;20392;-76
2021/09/13 03:03:35;;;;;;;36.95;21.90;;;13.60;99.90;;;;;;5028738;28;20492;-76
2021/09/13 03:06:00;;;;;;;34.42;22.23;;;13.60;99.90;;;;;;5028648;28;20888;-77
2021/09/13 03:08:26;;;;;;;41.20;23.77;;;13.50;99.90;;;;;;5027894;28;20385;-77
2021/09/13 03:10:51;;;;;;;37.67;23.33;;;13.50;99.90;;;;;;5028889;28;20456;-76
2021/09/13 03:13:17;;;;;;;34.67;23.37;;;13.50;99.90;;;;;;5028384;28;20419;-76
2021/09/13 03:15:43;;;;;;;34.78;22.52;;;13.50;99.90;;;;;;5028860;28;20389;-77
2021/09/13 03:18:09;;;;;;;29.70;21.73;;;13.40;99.90;;;;;;5027256;28;20420;-77
2021/09/13 03:20:34;;;;;;;33.50;22.37;;;13.30;99.90;;;;;;5014186;28;20398;-77
2021/09/13 03:23:00;;;;;;;33.10;22.03;;;13.30;99.90;;;;;;5004728;28;20483;-77
2021/09/13 03:25:26;;;;;;;33.70;22.80;;;13.20;99.90;;;;;;5005310;28;20386;-76
2021/09/13 03:27:52;;;;;;;37.13;23.92;;;13.20;99.90;;;;;;5004659;28;20390;-77
2021/09/13 03:30:18;;;;;;;36.28;22.85;;;13.20;99.90;;;;;;5006386;28;20868;-76
2021/09/13 03:32:44;;;;;;;30.83;21.50;;;13.30;99.90;;;;;;5008567;28;20393;-77
2021/09/13 03:35:10;;;;;;;30.45;21.25;;;13.30;99.90;;;;;;5009950;28;20408;-77
2021/09/13 03:37:36;;;;;;;35.60;23.25;;;13.30;99.90;;;;;;5009153;28;20394;-76
2021/09/13 03:40:03;;;;;;;43.88;25.90;;;13.20;99.90;;;;;;5008772;28;20395;-77
2021/09/13 03:42:29;;;;;;;42.17;24.77;;;13.40;99.90;;;;;;5009952;28;20475;-75
2021/09/13 03:44:54;;;;;;;42.13;25.00;;;13.30;99.90;;;;;;5021200;28;20417;-76
2021/09/13 03:47:20;;;;;;;43.60;25.63;;;13.30;99.90;;;;;;4999916;28;20409;-74
2021/09/13 03:49:45;;;;;;;39.60;25.00;;;13.20;99.90;;;;;;5005139;28;20422;-76
2021/09/13 03:52:11;;;;;;;37.57;25.10;;;13.30;99.90;;;;;;5007909;28;20390;-77
2021/09/13 03:54:37;;;;;;;33.33;23.03;;;13.50;99.90;;;;;;5008195;28;20425;-75
2021/09/13 03:57:03;;;;;;;37.88;22.77;;;13.60;99.90;;;;;;5007093;28;20417;-76
2021/09/13 03:59:29;;;;;;;34.25;24.17;;;13.60;99.90;;;;;;5005280;28;20406;-77
2021/09/13 04:01:55;;;;;;;35.33;22.80;;;13.60;99.90;;;;;;5005957;28;20397;-75
2021/09/13 04:04:24;;;;;;;34.10;21.77;;;13.80;99.90;;;;;;5006911;28;20822;-75
2021/09/13 04:06:55;;;;;;;33.93;22.27;;;13.90;96.80;;;;;;5018553;28;20397;-76
2021/09/13 04:11:57;;;;;;;40.47;24.80;;;13.60;98.30;;;;;;5007368;28;20468;-76
2021/09/13 04:14:28;;;;;;;37.25;25.75;;;13.50;99.90;;;;;;4998977;28;20798;-76
2021/09/13 04:16:55;;;;;;;42.53;26.88;;;13.40;99.90;;;;;;5005479;28;20462;-77
2021/09/13 04:19:22;;;;;;;37.60;25.50;;;13.40;99.90;;;;;;5005343;28;20405;-76
2021/09/13 04:21:49;;;;;;;42.55;26.00;;;13.30;99.90;;;;;;5007023;28;20406;-76
2021/09/13 04:24:14;;;;;;;194.48;39.08;;;13.30;99.90;;;;;;5008960;28;20410;-77
2021/09/13 04:26:40;;;;;;;72.05;31.10;;;13.20;99.90;;;;;;5008593;28;20756;-76
2021/09/13 04:29:06;;;;;;;50.60;27.70;;;13.20;99.90;;;;;;5008220;28;20841;-77
2021/09/13 04:31:33;;;;;;;480.73;197.13;;;13.40;99.90;;;;;;5008037;28;20382;-77
2021/09/13 04:33:59;;;;;;;48.13;26.73;;;13.30;99.90;;;;;;5004912;28;20386;-76
2021/09/13 04:36:25;;;;;;;38.17;23.75;;;13.50;99.90;;;;;;5002246;28;21678;-76
2021/09/13 04:38:50;;;;;;;38.75;25.35;;;13.40;99.90;;;;;;4999552;28;20967;-77
2021/09/13 04:41:16;;;;;;;40.13;24.87;;;13.60;99.90;;;;;;5000098;28;20390;-76
2021/09/13 04:43:41;;;;;;;40.03;25.52;;;13.50;99.20;;;;;;5015884;28;20384;-76
2021/09/13 04:46:07;;;;;;;36.88;25.95;;;13.50;99.90;;;;;;4994809;28;20403;-76
2021/09/13 04:48:33;;;;;;;42.10;26.23;;;13.30;99.90;;;;;;4993430;28;20485;-76
2021/09/13 04:50:58;;;;;;;35.37;24.20;;;13.40;99.90;;;;;;4992604;28;20406;-76
2021/09/13 04:53:24;;;;;;;36.73;23.67;;;13.40;99.90;;;;;;4979618;28;20759;-76
2021/09/13 04:55:49;;;;;;;38.93;24.03;;;13.40;99.90;;;;;;4991544;28;20402;-76
2021/09/13 04:58:15;;;;;;;36.10;25.10;;;13.20;99.90;;;;;;4994852;28;20905;-75
2021/09/13 05:00:40;;;;;;;39.57;25.67;;;13.20;99.90;;;;;;4987559;28;20454;-75
2021/09/13 05:03:06;;;;;;;37.38;24.23;;;13.20;99.90;;;;;;4993699;28;20519;-75
2021/09/13 05:05:32;;;;;;;34.83;23.70;;;13.00;99.90;;;;;;5000468;28;20401;-77
2021/09/13 05:07:58;;;;;;;45.92;27.67;;;13.00;99.90;;;;;;5011043;28;20425;-77
2021/09/13 05:10:24;;;;;;;44.28;27.23;;;12.90;99.90;;;;;;4998853;28;20433;-75
2021/09/13 05:12:50;;;;;;;43.33;27.25;;;12.90;99.90;;;;;;5000599;28;20402;-76
2021/09/13 05:15:15;;;;;;;41.83;26.57;;;12.90;99.90;;;;;;5000417;28;20387;-75
2021/09/13 05:17:41;;;;;;;40.67;26.93;;;12.80;99.90;;;;;;4993555;28;20477;-76
2021/09/13 05:20:07;;;;;;;40.30;26.33;;;12.80;99.90;;;;;;4993595;28;20738;-75
2021/09/13 05:22:33;;;;;;;41.78;27.02;;;12.70;99.90;;;;;;4995918;28;20467;-77
2021/09/13 05:24:58;;;;;;;47.75;27.77;;;12.70;99.90;;;;;;4992416;28;20477;-76
2021/09/13 05:27:24;;;;;;;50.15;26.83;;;13.00;99.90;;;;;;4993044;28;20394;-76
2021/09/13 05:29:49;;;;;;;47.33;25.52;;;13.10;99.90;;;;;;4992325;28;20465;-76
2021/09/13 05:32:15;;;;;;;37.60;25.97;;;13.10;99.90;;;;;;4994524;28;20481;-76
2021/09/13 05:34:41;;;;;;;48.03;27.05;;;13.10;99.90;;;;;;4997022;28;20399;-76
2021/09/13 05:37:06;;;;;;;40.60;25.83;;;13.10;99.90;;;;;;4996106;28;20397;-76
2021/09/13 05:39:32;;;;;;;36.33;25.47;;;13.20;99.90;;;;;;4996551;28;20394;-76
2021/09/13 05:41:58;;;;;;;41.73;26.57;;;13.30;99.90;;;;;;4997448;28;20382;-76
2021/09/13 05:44:23;;;;;;;44.47;26.25;;;13.20;99.90;;;;;;5016620;28;20415;-76
2021/09/13 05:46:51;;;;;;;39.97;24.70;;;13.20;99.90;;;;;;5017831;28;20396;-75
2021/09/13 05:49:16;;;;;;;44.90;26.20;;;13.20;99.90;;;;;;5017938;28;20404;-76
2021/09/13 05:51:45;;;;;;;38.20;22.95;;;13.20;99.90;;;;;;5016795;28;20385;-76
2021/09/13 05:54:12;;;;;;;34.03;20.90;;;13.20;99.90;;;;;;5016392;28;20385;-77
2021/09/13 05:56:38;;;;;;;33.03;21.17;;;13.40;99.90;;;;;;5015370;28;20385;-76
2021/09/13 05:59:04;;;;;;;30.73;19.40;;;13.50;99.90;;;;;;5016408;28;20874;-76
2021/09/13 06:01:30;;;;;;;32.65;18.92;;;13.60;99.90;;;;;;4998565;28;20401;-76
2021/09/13 06:03:55;;;;;;;341.20;228.18;;;13.80;99.80;;;;;;4998486;28;20725;-76
2021/09/13 06:06:21;;;;;;;450.48;313.40;;;13.80;99.60;;;;;;4995286;28;20419;-77
2021/09/13 06:08:46;;;;;;;146.10;91.23;;;13.90;99.90;;;;;;5009263;28;20901;-76
2021/09/13 06:11:12;;;;;;;141.90;89.47;;;14.00;99.90;;;;;;5000595;28;20402;-76
2021/09/13 06:13:39;;;;;;;99.03;62.83;;;14.10;99.90;;;;;;5004692;28;20481;-78
2021/09/13 06:16:08;;;;;;;75.35;45.67;;;14.20;98.30;;;;;;4998887;28;20395;-77
2021/09/13 06:18:37;;;;;;;131.23;79.70;;;14.30;95.30;;;;;;5005824;28;20391;-76
2021/09/13 06:21:02;;;;;;;56.00;35.17;;;14.40;93.40;;;;;;5010271;28;20488;-76
2021/09/13 06:23:28;;;;;;;48.88;32.42;;;14.60;92.10;;;;;;5017723;28;20573;-77
2021/09/13 06:25:53;;;;;;;31.05;18.75;;;14.70;89.70;;;;;;5005313;28;20399;-77
2021/09/13 06:28:19;;;;;;;24.80;18.37;;;14.90;84.80;;;;;;5007355;28;20387;-78
2021/09/13 06:30:45;;;;;;;46.40;31.57;;;15.10;79.50;;;;;;5000927;28;20416;-76
2021/09/13 06:33:11;;;;;;;54.58;36.58;;;15.10;78.20;;;;;;5010328;28;20401;-76
2021/09/13 06:35:36;;;;;;;40.43;26.90;;;15.10;81.20;;;;;;5011179;28;20403;-77
2021/09/13 06:38:02;;;;;;;70.87;48.73;;;15.10;80.00;;;;;;5010304;28;20780;-76
2021/09/13 06:40:27;;;;;;;32.77;20.97;;;15.20;82.90;;;;;;5003627;28;20390;-77
2021/09/13 06:42:53;;;;;;;48.80;30.35;;;15.40;78.70;;;;;;5014685;28;20448;-77
2021/09/13 06:45:23;;;;;;;51.05;36.08;;;15.60;76.30;;;;;;5024583;28;20395;-77
2021/09/13 06:47:49;;;;;;;39.88;24.23;;;15.70;73.20;;;;;;5008771;28;20506;-76
2021/09/13 06:50:19;;;;;;;38.15;23.05;;;16.10;66.40;;;;;;5006443;28;20487;-76
2021/09/13 06:52:49;;;;;;;32.30;20.83;;;16.30;63.00;;;;;;5017319;28;20394;-75
2021/09/13 06:55:15;;;;;;;33.00;20.17;;;16.30;64.50;;;;;;4998019;28;20445;-77
2021/09/13 06:57:41;;;;;;;32.70;20.58;;;16.30;64.30;;;;;;5007865;28;20454;-77
2021/09/13 07:00:10;;;;;;;37.08;21.10;;;16.30;62.70;;;;;;5000753;28;20417;-76
2021/09/13 07:02:38;;;;;;;25.73;18.50;;;16.30;64.30;;;;;;5012790;28;20446;-76
2021/09/13 07:05:05;;;;;;;37.88;18.58;;;16.50;60.00;;;;;;5014582;28;20391;-77
2021/09/13 07:07:31;;;;;;;26.70;17.02;;;16.60;57.10;;;;;;4998286;28;20532;-76
2021/09/13 07:09:57;;;;;;;28.35;17.85;;;16.50;58.40;;;;;;4998580;28;20420;-77
2021/09/13 07:12:23;;;;;;;30.33;20.80;;;16.40;60.20;;;;;;5004000;28;20406;-76
2021/09/13 07:14:49;;;;;;;29.42;19.33;;;16.40;61.30;;;;;;5004767;28;20943;-76
2021/09/13 07:17:15;;;;;;;31.55;18.33;;;16.60;59.30;;;;;;5005419;28;20409;-74
2021/09/13 07:19:41;;;;;;;28.75;17.35;;;16.90;55.00;;;;;;5000900;28;20414;-77
2021/09/13 07:22:06;;;;;;;29.38;17.45;;;17.10;52.70;;;;;;5002242;28;20410;-75
2021/09/13 07:24:32;;;;;;;29.63;17.85;;;17.10;52.20;;;;;;4992390;28;20406;-74
2021/09/13 07:26:58;;;;;;;27.60;17.93;;;17.00;53.10;;;;;;4977232;28;20489;-76
2021/09/13 07:29:25;;;;;;;26.77;17.20;;;16.90;56.30;;;;;;4993984;28;20426;-78
2021/09/13 07:31:51;;;;;;;26.10;17.45;;;17.10;52.70;;;;;;4994232;28;20404;-76
2021/09/13 07:34:16;;;;;;;28.83;17.60;;;17.20;52.90;;;;;;4982311;28;20404;-76
2021/09/13 07:36:42;;;;;;;24.90;17.05;;;17.30;52.70;;;;;;4983978;28;20851;-77
2021/09/13 07:39:08;;;;;;;30.50;18.70;;;17.30;52.30;;;;;;4990393;28;20421;-77
2021/09/13 07:41:33;;;;;;;26.40;17.20;;;17.40;52.20;;;;;;4991936;28;20399;-75
2021/09/13 07:43:59;;;;;;;30.17;18.53;;;17.30;53.70;;;;;;5002954;28;20406;-75
2021/09/13 07:46:25;;;;;;;27.48;18.20;;;17.30;53.80;;;;;;4998105;28;20391;-76
2021/09/13 07:48:50;;;;;;;26.23;17.10;;;17.20;55.00;;;;;;4992206;28;20775;-76
2021/09/13 07:51:16;;;;;;;28.27;19.00;;;17.20;56.50;;;;;;4995956;28;20409;-75
2021/09/13 07:53:41;;;;;;;31.63;19.43;;;17.20;56.10;;;;;;5003326;28;20398;-76
2021/09/13 07:56:07;;;;;;;32.13;19.27;;;17.30;55.10;;;;;;4993600;28;20398;-76
2021/09/13 07:58:33;;;;;;;30.73;20.80;;;17.60;52.80;;;;;;4994832;28;20450;-74
2021/09/13 08:00:58;;;;;;;38.40;23.00;;;17.60;53.00;;;;;;5004582;28;20389;-76
2021/09/13 08:03:24;;;;;;;36.77;22.90;;;17.50;54.00;;;;;;5004083;28;20399;-76
2021/09/13 08:05:49;;;;;;;42.53;25.53;;;17.30;55.50;;;;;;4996981;28;20409;-78
2021/09/13 08:08:15;;;;;;;43.57;25.87;;;17.40;55.70;;;;;;4998651;28;20401;-79
2021/09/13 08:10:41;;;;;;;37.60;24.63;;;17.50;55.10;;;;;;4993400;28;20413;-77
2021/09/13 08:13:06;;;;;;;40.90;26.95;;;17.70;54.40;;;;;;5001721;28;20381;-76
2021/09/13 08:15:32;;;;;;;48.10;28.10;;;17.70;54.90;;;;;;4996153;28;20437;-76
2021/09/13 08:17:59;;;;;;;50.67;28.73;;;17.80;54.60;;;;;;5000991;28;20407;-76
2021/09/13 08:20:25;;;;;;;43.90;28.90;;;17.80;54.00;;;;;;5005520;28;20514;-76
2021/09/13 08:22:51;;;;;;;56.00;31.33;;;17.90;53.80;;;;;;5003680;28;20406;-77
2021/09/13 08:25:16;;;;;;;54.17;32.33;;;17.90;53.50;;;;;;5003624;28;20406;-76
2021/09/13 08:27:42;;;;;;;50.90;30.93;;;17.90;52.50;;;;;;4999886;28;20407;-77
2021/09/13 08:30:08;;;;;;;51.87;31.80;;;18.00;51.70;;;;;;5001813;28;20413;-77
2021/09/13 08:32:34;;;;;;;45.67;30.05;;;18.10;51.60;;;;;;5007239;28;20390;-75
2021/09/13 08:35:00;;;;;;;49.25;31.30;;;18.30;50.70;;;;;;4994723;28;20461;-77
2021/09/13 08:37:26;;;;;;;50.90;30.93;;;18.50;48.90;;;;;;5006043;28;20399;-77
2021/09/13 08:39:52;;;;;;;58.50;33.85;;;18.40;49.10;;;;;;5003675;28;20414;-77
2021/09/13 08:42:19;;;;;;;56.90;33.85;;;18.40;49.30;;;;;;5004050;28;21476;-75
2021/09/13 08:44:49;;;;;;;54.55;32.60;;;18.40;49.30;;;;;;5002294;28;20414;-75
2021/09/13 08:47:29;;;;;;;54.80;33.28;;;18.60;47.50;;;;;;5005764;28;21109;-76
2021/09/13 08:50:03;;;;;;;59.95;34.50;;;18.80;45.10;;;;;;4995804;28;20414;-76
2021/09/13 08:52:28;;;;;;;50.08;32.10;;;19.10;44.20;;;;;;4999906;28;20406;-76
2021/09/13 08:54:54;;;;;;;53.57;32.37;;;19.30;41.60;;;;;;5000272;28;20464;-77
2021/09/13 08:57:20;;;;;;;49.50;30.83;;;19.50;40.30;;;;;;5009134;28;20402;-76
2021/09/13 08:59:47;;;;;;;53.30;31.48;;;19.70;40.30;;;;;;5004235;28;20501;-77
2021/09/13 09:02:13;;;;;;;57.97;33.88;;;19.70;40.90;;;;;;5003001;28;20387;-75
2021/09/13 09:04:43;;;;;;;50.88;31.58;;;19.60;41.00;;;;;;5000510;28;20394;-75
2021/09/13 09:07:09;;;;;;;51.92;32.58;;;19.70;40.20;;;;;;4999030;28;20398;-76
2021/09/13 09:09:36;;;;;;;50.88;29.98;;;19.80;40.30;;;;;;5011941;28;20412;-74
2021/09/13 09:12:08;;;;;;;46.10;29.65;;;19.90;39.00;;;;;;4994556;28;20402;-76
2021/09/13 09:14:45;;;;;;;43.07;29.00;;;20.10;38.20;;;;;;4999954;28;20406;-76
2021/09/13 09:17:27;;;;;;;36.97;25.08;;;20.20;37.40;;;;;;4992452;28;20401;-74
2021/09/13 09:20:06;;;;;;;46.15;27.60;;;20.30;35.60;;;;;;4988927;28;20399;-77
2021/09/13 09:22:36;;;;;;;37.33;24.17;;;20.30;35.60;;;;;;5019346;28;20968;-77
2021/09/13 09:25:05;;;;;;;37.10;23.88;;;20.50;33.50;;;;;;5015507;28;20400;-75
2021/09/13 09:27:30;;;;;;;28.95;18.80;;;20.50;33.10;;;;;;4993421;28;20469;-76
2021/09/13 09:30:10;;;;;;;27.45;16.30;;;20.30;32.50;;;;;;4996965;28;20422;-75
2021/09/13 09:32:37;;;;;;;27.40;17.40;;;20.30;30.30;;;;;;4994411;28;20383;-76
2021/09/13 09:35:17;;;;;;;34.78;22.48;;;20.30;31.80;;;;;;5000899;28;20394;-77
2021/09/13 09:37:43;;;;;;;33.95;21.08;;;20.30;32.40;;;;;;4977037;28;20503;-77
2021/09/13 09:40:09;;;;;;;34.60;19.37;;;20.30;31.60;;;;;;4994895;28;20437;-75
2021/09/13 09:42:37;;;;;;;40.45;23.20;;;20.30;31.50;;;;;;5001945;28;20398;-77
2021/09/13 09:45:05;;;;;;;38.38;22.60;;;20.50;32.80;;;;;;4999588;28;20463;-76
2021/09/13 09:47:30;;;;;;;37.90;22.55;;;20.70;32.30;;;;;;5008730;28;20457;-76
2021/09/13 09:49:58;;;;;;;31.15;18.02;;;20.60;31.90;;;;;;4999567;28;20450;-76
2021/09/13 09:52:40;;;;;;;28.05;18.15;;;20.60;30.20;;;;;;5011555;28;20494;-77
2021/09/13 09:55:19;;;;;;;30.98;16.98;;;20.80;30.30;;;;;;5004022;28;20477;-76
2021/09/13 09:58:06;;;;;;;25.88;16.63;;;20.70;28.90;;;;;;4997519;28;20402;-77
2021/09/13 10:00:33;;;;;;;24.17;15.27;;;20.70;29.30;;;;;;4995643;28;20405;-76
2021/09/13 10:02:59;;;;;;;24.80;15.17;;;20.70;28.50;;;;;;4994292;28;20567;-75
2021/09/13 10:05:27;;;;;;;30.43;17.70;;;20.90;28.20;;;;;;4995851;28;20855;-77
2021/09/13 10:07:53;;;;;;;31.63;18.30;;;21.10;30.60;;;;;;4996923;28;20974;-76
2021/09/13 10:10:21;;;;;;;22.40;16.48;;;21.10;29.80;;;;;;4991890;28;20474;-75
2021/09/13 10:12:47;;;;;;;24.45;15.63;;;21.20;29.80;;;;;;5000535;28;20461;-76
2021/09/13 10:15:14;;;;;;;19.35;14.10;;;21.40;28.40;;;;;;4998652;28;20899;-75
2021/09/13 10:17:40;;;;;;;21.02;13.10;;;21.30;26.20;;;;;;4994540;28;20421;-76
2021/09/13 10:20:07;;;;;;;19.63;12.32;;;21.30;25.70;;;;;;5001797;28;20414;-76
2021/09/13 10:22:37;;;;;;;13.43;8.97;;;21.40;24.80;;;;;;4990920;28;20415;-76
2021/09/13 10:25:05;;;;;;;49.28;29.75;;;21.70;21.20;;;;;;5011052;28;20410;-77
2021/09/13 10:27:39;;;;;;;21.70;12.50;;;21.70;22.70;;;;;;5010037;28;20665;-77
2021/09/13 10:30:18;;;;;;;17.45;10.65;;;21.80;23.10;;;;;;5005926;28;20880;-77
2021/09/13 10:32:46;;;;;;;13.52;8.90;;;22.00;20.90;;;;;;5011036;28;20417;-75
2021/09/13 10:35:13;;;;;;;11.63;8.98;;;21.80;20.40;;;;;;5006193;28;20550;-76
2021/09/13 10:37:38;;;;;;;16.75;9.98;;;21.80;21.00;;;;;;5009377;28;20410;-76
2021/09/13 10:40:05;;;;;;;14.75;9.43;;;21.80;22.10;;;;;;5009964;28;20406;-77
2021/09/13 10:42:50;;;;;;;12.70;9.20;;;21.80;22.20;;;;;;5009436;28;20448;-79
2021/09/13 10:45:28;;;;;;;13.25;8.02;;;21.90;21.30;;;;;;5008135;28;20485;-77
2021/09/13 10:47:54;;;;;;;11.70;8.00;;;22.40;20.40;;;;;;4985542;28;20395;-77
2021/09/13 10:50:37;;;;;;;12.80;8.00;;;22.40;21.10;;;;;;4987297;28;20416;-76
2021/09/13 10:53:24;;;;;;;9.32;7.53;;;22.50;19.70;;;;;;5007204;28;20411;-77
2021/09/13 10:55:52;;;;;;;12.85;7.82;;;22.30;19.40;;;;;;5012426;28;20398;-77
2021/09/13 10:58:19;;;;;;;10.45;8.07;;;22.70;19.10;;;;;;5009876;28;20811;-78
2021/09/13 11:00:45;;;;;;;9.75;7.40;;;22.90;18.60;;;;;;5007961;28;20402;-77
2021/09/13 11:03:23;;;;;;;9.15;6.18;;;22.90;17.10;;;;;;5005709;28;20416;-76
2021/09/13 11:06:11;;;;;;;9.30;6.30;;;22.90;17.30;;;;;;5003057;28;20410;-78
2021/09/13 11:08:44;;;;;;;6.30;5.70;;;22.90;16.30;;;;;;5001400;28;20395;-76
2021/09/13 11:11:23;;;;;;;5.80;4.90;;;22.80;16.20;;;;;;5002817;28;20421;-76
2021/09/13 11:13:57;;;;;;;5.90;4.80;;;22.90;17.10;;;;;;4997574;28;20401;-75
2021/09/13 11:16:23;;;;;;;5.80;4.30;;;22.90;16.70;;;;;;4997862;28;20422;-77
2021/09/13 11:18:49;;;;;;;6.23;4.43;;;23.10;16.40;;;;;;4993851;28;20887;-76
2021/09/13 11:21:24;;;;;;;4.17;3.77;;;23.10;15.70;;;;;;4993550;28;20387;-76
2021/09/13 11:23:51;;;;;;;4.28;3.88;;;23.20;15.20;;;;;;4994316;28;20394;-76
2021/09/13 11:26:47;;;;;;;7.22;4.40;;;23.50;14.80;;;;;;4997139;28;20394;-76
2021/09/13 11:29:26;;;;;;;5.60;4.57;;;23.40;14.40;;;;;;4991696;28;20430;-77
2021/09/13 11:32:01;;;;;;;8.35;6.00;;;23.20;16.10;;;;;;4993326;28;20509;-76
2021/09/13 11:34:29;;;;;;;7.43;5.50;;;23.20;16.10;;;;;;4993462;28;20390;-75
2021/09/13 11:37:02;;;;;;;11.20;4.90;;;23.60;16.00;;;;;;4993685;28;20521;-79
2021/09/13 11:39:35;;;;;;;18.42;9.52;;;23.90;14.40;;;;;;4993107;28;20405;-75
2021/09/13 11:42:03;;;;;;;7.97;5.55;;;23.80;14.60;;;;;;4995144;28;20386;-76
2021/09/13 11:44:30;;;;;;;13.23;6.88;;;23.90;15.50;;;;;;5013827;28;20385;-77
2021/09/13 11:47:01;;;;;;;8.27;6.90;;;23.60;16.30;;;;;;5013125;28;20738;-76
2021/09/13 11:49:30;;;;;;;12.83;7.50;;;23.60;16.50;;;;;;5013232;28;20467;-75
2021/09/13 11:52:09;;;;;;;8.65;6.50;;;23.70;16.70;;;;;;5018429;28;20432;-76
2021/09/13 11:54:46;;;;;;;7.40;5.80;;;24.10;15.90;;;;;;5017953;28;20381;-77
2021/09/13 11:57:42;;;;;;;9.75;7.00;;;24.20;16.20;;;;;;5015054;28;20461;-77
2021/09/13 12:00:10;;;;;;;8.85;5.95;;;24.20;16.50;;;;;;5012946;28;20432;-76
2021/09/13 12:02:37;;;;;;;12.60;6.78;;;24.30;17.40;;;;;;5012463;28;20392;-76
2021/09/13 12:05:13;;;;;;;12.23;6.90;;;24.20;16.70;;;;;;5012689;28;20393;-76
2021/09/13 12:07:39;;;;;;;8.63;7.05;;;24.10;16.80;;;;;;4992943;28;20399;-75
2021/09/13 12:10:06;;;;;;;10.07;7.13;;;24.10;16.80;;;;;;5002175;28;20433;-75
2021/09/13 12:12:34;;;;;;;10.23;6.65;;;24.20;16.10;;;;;;5011851;28;20723;-80
2021/09/13 12:15:07;;;;;;;9.03;6.77;;;24.00;16.90;;;;;;5049343;28;20490;-78
2021/09/13 12:17:37;;;;;;;12.33;8.00;;;24.10;17.30;;;;;;5007631;28;20391;-78
2021/09/13 12:20:16;;;;;;;10.32;7.18;;;24.10;17.00;;;;;;4995995;28;20391;-80
2021/09/13 12:22:47;;;;;;;13.40;8.32;;;24.20;17.90;;;;;;4994744;28;20405;-78
2021/09/13 12:25:19;;;;;;;15.60;7.90;;;24.20;17.00;;;;;;4999669;28;20394;-77
2021/09/13 12:27:50;;;;;;;12.18;8.20;;;24.20;17.50;;;;;;5002801;28;20398;-77
2021/09/13 12:30:21;;;;;;;9.30;6.70;;;24.10;17.70;;;;;;4995427;28;20414;-76
2021/09/13 12:33:02;;;;;;;13.27;7.72;;;24.00;17.30;;;;;;4995046;28;20465;-79